sensor_id;sensor_type;location;lat;lon;timestamp;P1;durP1;ratioP1;P2;durP2;ratioP2
69280;SDS011;56392;51.082;17.080;2023-03-23T00:02:17;36.67;;;18.50;;
69280;SDS011;56392;51.082;17.080;2023-03-23T00:07:40;40.03;;;18.47;;
69280;SDS011;56392;51.082;17.080;2023-03-23T00:13:07;40.50;;;19.37;;
69280;SDS011;56392;51.082;17.080;2023-03-23T00:18:32;40.45;;;20.10;;
69280;SDS011;56392;51.082;17.080;2023-03-23T00:23:57;41.88;;;20.58;;
69280;SDS011;56392;51.082;17.080;2023-03-23T00:29:22;43.83;;;21.40;;
69280;SDS011;56392;51.082;17.080;2023-03-23T00:34:45;41.42;;;20.38;;
69280;SDS011;56392;51.082;17.080;2023-03-23T00:40:10;36.92;;;18.98;;
69280;SDS011;56392;51.082;17.080;2023-03-23T00:45:35;37.70;;;18.33;;
69280;SDS011;56392;51.082;17.080;2023-03-23T00:50:58;36.20;;;18.73;;
69280;SDS011;56392;51.082;17.080;2023-03-23T00:56:22;34.55;;;18.30;;
69280;SDS011;56392;51.082;17.080;2023-03-23T01:01:49;36.73;;;18.83;;
69280;SDS011;56392;51.082;17.080;2023-03-23T01:07:12;31.07;;;16.17;;
69280;SDS011;56392;51.082;17.080;2023-03-23T01:12:35;34.10;;;16.50;;
69280;SDS011;56392;51.082;17.080;2023-03-23T01:18:00;33.83;;;19.13;;
69280;SDS011;56392;51.082;17.080;2023-03-23T01:23:23;31.10;;;17.93;;
69280;SDS011;56392;51.082;17.080;2023-03-23T01:28:46;29.70;;;16.75;;
69280;SDS011;56392;51.082;17.080;2023-03-23T01:34:11;31.27;;;16.40;;
69280;SDS011;56392;51.082;17.080;2023-03-23T01:39:35;28.93;;;15.30;;
69280;SDS011;56392;51.082;17.080;2023-03-23T01:50:58;31.10;;;14.75;;
69280;SDS011;56392;51.082;17.080;2023-03-23T01:56:26;25.87;;;13.93;;
69280;SDS011;56392;51.082;17.080;2023-03-23T02:01:54;27.67;;;14.10;;
69280;SDS011;56392;51.082;17.080;2023-03-23T02:07:20;27.77;;;13.82;;
69280;SDS011;56392;51.082;17.080;2023-03-23T02:12:44;24.60;;;11.98;;
69280;SDS011;56392;51.082;17.080;2023-03-23T02:18:08;22.57;;;11.20;;
69280;SDS011;56392;51.082;17.080;2023-03-23T02:23:47;24.17;;;12.07;;
69280;SDS011;56392;51.082;17.080;2023-03-23T02:35:12;21.60;;;10.50;;
69280;SDS011;56392;51.082;17.080;2023-03-23T02:40:41;18.70;;;9.38;;
69280;SDS011;56392;51.082;17.080;2023-03-23T02:46:07;20.20;;;9.00;;
69280;SDS011;56392;51.082;17.080;2023-03-23T02:51:33;19.30;;;9.63;;
69280;SDS011;56392;51.082;17.080;2023-03-23T02:56:58;20.87;;;9.80;;
69280;SDS011;56392;51.082;17.080;2023-03-23T03:02:22;16.83;;;8.25;;
69280;SDS011;56392;51.082;17.080;2023-03-23T03:07:52;16.40;;;8.40;;
69280;SDS011;56392;51.082;17.080;2023-03-23T03:13:28;16.73;;;9.30;;
69280;SDS011;56392;51.082;17.080;2023-03-23T03:18:56;16.02;;;7.93;;
69280;SDS011;56392;51.082;17.080;2023-03-23T03:24:25;17.90;;;7.78;;
69280;SDS011;56392;51.082;17.080;2023-03-23T03:29:51;17.83;;;7.50;;
69280;SDS011;56392;51.082;17.080;2023-03-23T03:35:18;13.70;;;7.15;;
69280;SDS011;56392;51.082;17.080;2023-03-23T03:40:44;14.40;;;6.95;;
69280;SDS011;56392;51.082;17.080;2023-03-23T03:46:07;14.17;;;6.70;;
69280;SDS011;56392;51.082;17.080;2023-03-23T03:51:30;14.60;;;6.67;;
69280;SDS011;56392;51.082;17.080;2023-03-23T03:56:55;15.75;;;6.93;;
69280;SDS011;56392;51.082;17.080;2023-03-23T04:02:19;13.15;;;6.25;;
69280;SDS011;56392;51.082;17.080;2023-03-23T04:07:42;13.13;;;7.57;;
69280;SDS011;56392;51.082;17.080;2023-03-23T04:13:08;16.13;;;9.27;;
69280;SDS011;56392;51.082;17.080;2023-03-23T04:18:31;13.93;;;8.73;;
69280;SDS011;56392;51.082;17.080;2023-03-23T04:23:55;13.00;;;6.73;;
69280;SDS011;56392;51.082;17.080;2023-03-23T04:29:21;13.98;;;7.20;;
69280;SDS011;56392;51.082;17.080;2023-03-23T04:34:44;11.88;;;6.85;;
69280;SDS011;56392;51.082;17.080;2023-03-23T04:40:08;11.80;;;5.27;;
69280;SDS011;56392;51.082;17.080;2023-03-23T04:45:37;12.57;;;6.13;;
69280;SDS011;56392;51.082;17.080;2023-03-23T04:51:04;10.13;;;5.20;;
69280;SDS011;56392;51.082;17.080;2023-03-23T04:56:27;12.00;;;5.40;;
69280;SDS011;56392;51.082;17.080;2023-03-23T05:01:52;9.80;;;5.20;;
69280;SDS011;56392;51.082;17.080;2023-03-23T05:07:15;12.27;;;5.30;;
69280;SDS011;56392;51.082;17.080;2023-03-23T05:12:38;11.77;;;4.93;;
69280;SDS011;56392;51.082;17.080;2023-03-23T05:18:03;12.37;;;5.00;;
69280;SDS011;56392;51.082;17.080;2023-03-23T05:23:27;10.60;;;5.22;;
69280;SDS011;56392;51.082;17.080;2023-03-23T05:28:52;12.40;;;5.60;;
69280;SDS011;56392;51.082;17.080;2023-03-23T05:34:17;12.70;;;5.13;;
69280;SDS011;56392;51.082;17.080;2023-03-23T05:39:40;10.93;;;4.80;;
69280;SDS011;56392;51.082;17.080;2023-03-23T05:45:03;12.95;;;4.93;;
69280;SDS011;56392;51.082;17.080;2023-03-23T05:50:29;12.18;;;4.60;;
69280;SDS011;56392;51.082;17.080;2023-03-23T05:55:52;13.93;;;5.80;;
69280;SDS011;56392;51.082;17.080;2023-03-23T06:01:15;13.90;;;6.57;;
69280;SDS011;56392;51.082;17.080;2023-03-23T06:06:39;14.85;;;7.13;;
69280;SDS011;56392;51.082;17.080;2023-03-23T06:12:05;13.27;;;5.97;;
69280;SDS011;56392;51.082;17.080;2023-03-23T06:17:28;16.58;;;6.57;;
69280;SDS011;56392;51.082;17.080;2023-03-23T06:22:53;19.80;;;8.40;;
69280;SDS011;56392;51.082;17.080;2023-03-23T06:28:16;19.93;;;6.17;;
69280;SDS011;56392;51.082;17.080;2023-03-23T06:33:39;13.17;;;4.73;;
69280;SDS011;56392;51.082;17.080;2023-03-23T06:39:03;11.63;;;4.88;;
69280;SDS011;56392;51.082;17.080;2023-03-23T06:44:26;12.18;;;4.55;;
69280;SDS011;56392;51.082;17.080;2023-03-23T06:49:50;12.43;;;4.60;;
69280;SDS011;56392;51.082;17.080;2023-03-23T06:55:14;8.75;;;3.80;;
69280;SDS011;56392;51.082;17.080;2023-03-23T07:00:38;11.85;;;4.20;;
69280;SDS011;56392;51.082;17.080;2023-03-23T07:06:02;10.50;;;4.20;;
69280;SDS011;56392;51.082;17.080;2023-03-23T07:11:27;10.15;;;3.72;;
69280;SDS011;56392;51.082;17.080;2023-03-23T07:16:50;9.90;;;3.75;;
69280;SDS011;56392;51.082;17.080;2023-03-23T07:22:13;9.33;;;4.00;;
69280;SDS011;56392;51.082;17.080;2023-03-23T07:27:37;9.87;;;3.43;;
69280;SDS011;56392;51.082;17.080;2023-03-23T07:33:03;8.93;;;3.40;;
69280;SDS011;56392;51.082;17.080;2023-03-23T07:38:28;10.70;;;3.67;;
69280;SDS011;56392;51.082;17.080;2023-03-23T07:43:53;10.97;;;4.13;;
69280;SDS011;56392;51.082;17.080;2023-03-23T07:49:16;9.45;;;3.90;;
69280;SDS011;56392;51.082;17.080;2023-03-23T07:54:39;10.27;;;4.25;;
69280;SDS011;56392;51.082;17.080;2023-03-23T08:00:05;11.13;;;4.13;;
69280;SDS011;56392;51.082;17.080;2023-03-23T08:05:34;10.35;;;4.03;;
69280;SDS011;56392;51.082;17.080;2023-03-23T08:10:57;9.73;;;4.25;;
69280;SDS011;56392;51.082;17.080;2023-03-23T08:16:22;9.83;;;3.83;;
69280;SDS011;56392;51.082;17.080;2023-03-23T08:21:45;13.33;;;4.10;;
69280;SDS011;56392;51.082;17.080;2023-03-23T08:27:09;10.45;;;4.18;;
69280;SDS011;56392;51.082;17.080;2023-03-23T08:32:33;9.57;;;4.22;;
69280;SDS011;56392;51.082;17.080;2023-03-23T08:37:57;8.30;;;3.60;;
69280;SDS011;56392;51.082;17.080;2023-03-23T08:43:20;8.48;;;3.30;;
69280;SDS011;56392;51.082;17.080;2023-03-23T08:48:44;9.70;;;3.72;;
69280;SDS011;56392;51.082;17.080;2023-03-23T08:54:08;11.50;;;4.00;;
69280;SDS011;56392;51.082;17.080;2023-03-23T08:59:31;8.45;;;3.53;;
69280;SDS011;56392;51.082;17.080;2023-03-23T09:04:55;8.35;;;2.90;;
69280;SDS011;56392;51.082;17.080;2023-03-23T09:10:19;7.83;;;2.40;;
69280;SDS011;56392;51.082;17.080;2023-03-23T09:15:42;8.00;;;2.73;;
69280;SDS011;56392;51.082;17.080;2023-03-23T09:21:07;7.50;;;2.50;;
69280;SDS011;56392;51.082;17.080;2023-03-23T09:26:31;11.38;;;2.40;;
69280;SDS011;56392;51.082;17.080;2023-03-23T09:31:54;7.40;;;2.67;;
69280;SDS011;56392;51.082;17.080;2023-03-23T09:37:19;7.55;;;2.70;;
69280;SDS011;56392;51.082;17.080;2023-03-23T09:42:48;7.32;;;2.53;;
69280;SDS011;56392;51.082;17.080;2023-03-23T09:48:25;8.87;;;2.90;;
69280;SDS011;56392;51.082;17.080;2023-03-23T09:53:57;9.25;;;3.15;;
69280;SDS011;56392;51.082;17.080;2023-03-23T09:59:34;7.60;;;2.78;;
69280;SDS011;56392;51.082;17.080;2023-03-23T10:10:58;7.37;;;2.33;;
69280;SDS011;56392;51.082;17.080;2023-03-23T10:16:24;8.15;;;2.40;;
69280;SDS011;56392;51.082;17.080;2023-03-23T10:21:54;7.70;;;2.17;;
69280;SDS011;56392;51.082;17.080;2023-03-23T10:27:24;6.13;;;1.87;;
69280;SDS011;56392;51.082;17.080;2023-03-23T10:32:53;8.13;;;2.00;;
69280;SDS011;56392;51.082;17.080;2023-03-23T10:38:19;6.32;;;1.60;;
69280;SDS011;56392;51.082;17.080;2023-03-23T10:43:48;5.07;;;1.30;;
69280;SDS011;56392;51.082;17.080;2023-03-23T10:49:12;9.27;;;1.30;;
69280;SDS011;56392;51.082;17.080;2023-03-23T10:54:45;4.22;;;1.10;;
69280;SDS011;56392;51.082;17.080;2023-03-23T11:00:18;6.17;;;1.47;;
69280;SDS011;56392;51.082;17.080;2023-03-23T11:05:45;6.00;;;1.10;;
69280;SDS011;56392;51.082;17.080;2023-03-23T11:11:14;6.25;;;1.60;;
69280;SDS011;56392;51.082;17.080;2023-03-23T11:16:42;4.72;;;1.40;;
69280;SDS011;56392;51.082;17.080;2023-03-23T11:22:07;4.80;;;1.10;;
69280;SDS011;56392;51.082;17.080;2023-03-23T11:27:35;4.43;;;1.30;;
69280;SDS011;56392;51.082;17.080;2023-03-23T11:33:03;4.78;;;1.30;;
69280;SDS011;56392;51.082;17.080;2023-03-23T11:38:26;5.83;;;1.40;;
69280;SDS011;56392;51.082;17.080;2023-03-23T11:43:51;4.75;;;1.38;;
69280;SDS011;56392;51.082;17.080;2023-03-23T11:49:18;5.40;;;1.50;;
69280;SDS011;56392;51.082;17.080;2023-03-23T11:54:49;4.90;;;1.40;;
69280;SDS011;56392;51.082;17.080;2023-03-23T12:00:19;5.30;;;1.60;;
69280;SDS011;56392;51.082;17.080;2023-03-23T12:05:47;7.20;;;1.60;;
69280;SDS011;56392;51.082;17.080;2023-03-23T12:11:16;4.57;;;1.40;;
69280;SDS011;56392;51.082;17.080;2023-03-23T12:16:57;5.33;;;1.63;;
69280;SDS011;56392;51.082;17.080;2023-03-23T12:22:33;5.10;;;1.52;;
69280;SDS011;56392;51.082;17.080;2023-03-23T12:28:05;8.93;;;1.60;;
69280;SDS011;56392;51.082;17.080;2023-03-23T12:33:38;6.10;;;1.60;;
69280;SDS011;56392;51.082;17.080;2023-03-23T12:39:25;5.40;;;1.50;;
69280;SDS011;56392;51.082;17.080;2023-03-23T12:44:59;6.43;;;1.42;;
69280;SDS011;56392;51.082;17.080;2023-03-23T12:50:30;5.30;;;1.50;;
69280;SDS011;56392;51.082;17.080;2023-03-23T12:56:04;5.57;;;1.50;;
69280;SDS011;56392;51.082;17.080;2023-03-23T13:01:35;8.93;;;2.08;;
69280;SDS011;56392;51.082;17.080;2023-03-23T13:07:05;5.80;;;1.70;;
69280;SDS011;56392;51.082;17.080;2023-03-23T13:12:30;5.83;;;1.80;;
69280;SDS011;56392;51.082;17.080;2023-03-23T13:17:58;7.03;;;1.83;;
69280;SDS011;56392;51.082;17.080;2023-03-23T13:23:28;7.07;;;1.92;;
69280;SDS011;56392;51.082;17.080;2023-03-23T13:28:57;5.33;;;1.70;;
69280;SDS011;56392;51.082;17.080;2023-03-23T13:34:24;7.13;;;1.90;;
69280;SDS011;56392;51.082;17.080;2023-03-23T13:39:49;8.60;;;2.03;;
69280;SDS011;56392;51.082;17.080;2023-03-23T13:45:22;7.60;;;2.17;;
69280;SDS011;56392;51.082;17.080;2023-03-23T13:50:49;7.27;;;2.33;;
69280;SDS011;56392;51.082;17.080;2023-03-23T13:56:15;10.55;;;1.95;;
69280;SDS011;56392;51.082;17.080;2023-03-23T14:01:42;8.07;;;2.45;;
69280;SDS011;56392;51.082;17.080;2023-03-23T14:07:08;7.10;;;2.13;;
69280;SDS011;56392;51.082;17.080;2023-03-23T14:12:32;8.18;;;2.42;;
69280;SDS011;56392;51.082;17.080;2023-03-23T14:17:57;7.18;;;2.40;;
69280;SDS011;56392;51.082;17.080;2023-03-23T14:23:25;6.57;;;2.10;;
69280;SDS011;56392;51.082;17.080;2023-03-23T14:28:50;10.20;;;2.60;;
69280;SDS011;56392;51.082;17.080;2023-03-23T14:34:18;6.10;;;2.10;;
69280;SDS011;56392;51.082;17.080;2023-03-23T14:39:44;7.37;;;2.43;;
69280;SDS011;56392;51.082;17.080;2023-03-23T14:45:11;8.63;;;2.40;;
69280;SDS011;56392;51.082;17.080;2023-03-23T14:50:39;8.70;;;2.50;;
69280;SDS011;56392;51.082;17.080;2023-03-23T14:56:06;6.53;;;2.50;;
69280;SDS011;56392;51.082;17.080;2023-03-23T15:01:34;7.83;;;2.60;;
69280;SDS011;56392;51.082;17.080;2023-03-23T15:07:00;7.28;;;2.60;;
69280;SDS011;56392;51.082;17.080;2023-03-23T15:12:27;6.72;;;2.40;;
69280;SDS011;56392;51.082;17.080;2023-03-23T15:17:52;8.43;;;2.70;;
69280;SDS011;56392;51.082;17.080;2023-03-23T15:23:21;6.60;;;2.60;;
69280;SDS011;56392;51.082;17.080;2023-03-23T15:28:48;8.13;;;2.70;;
69280;SDS011;56392;51.082;17.080;2023-03-23T15:34:20;8.77;;;2.70;;
69280;SDS011;56392;51.082;17.080;2023-03-23T15:39:49;7.10;;;2.50;;
69280;SDS011;56392;51.082;17.080;2023-03-23T15:45:20;9.27;;;2.80;;
69280;SDS011;56392;51.082;17.080;2023-03-23T15:50:47;9.48;;;2.80;;
69280;SDS011;56392;51.082;17.080;2023-03-23T15:56:13;12.17;;;2.90;;
69280;SDS011;56392;51.082;17.080;2023-03-23T16:01:38;8.60;;;2.80;;
69280;SDS011;56392;51.082;17.080;2023-03-23T16:07:02;7.07;;;2.80;;
69280;SDS011;56392;51.082;17.080;2023-03-23T16:12:28;7.33;;;2.70;;
69280;SDS011;56392;51.082;17.080;2023-03-23T16:17:51;10.02;;;2.90;;
69280;SDS011;56392;51.082;17.080;2023-03-23T16:23:15;9.65;;;2.80;;
69280;SDS011;56392;51.082;17.080;2023-03-23T16:28:39;8.83;;;2.90;;
69280;SDS011;56392;51.082;17.080;2023-03-23T16:34:02;10.97;;;3.70;;
69280;SDS011;56392;51.082;17.080;2023-03-23T16:39:26;10.50;;;3.45;;
69280;SDS011;56392;51.082;17.080;2023-03-23T16:44:50;9.55;;;3.83;;
69280;SDS011;56392;51.082;17.080;2023-03-23T16:50:15;8.73;;;3.63;;
69280;SDS011;56392;51.082;17.080;2023-03-23T16:55:40;17.25;;;6.35;;
69280;SDS011;56392;51.082;17.080;2023-03-23T17:01:09;15.57;;;6.22;;
69280;SDS011;56392;51.082;17.080;2023-03-23T17:06:32;15.90;;;6.57;;
69280;SDS011;56392;51.082;17.080;2023-03-23T17:11:55;12.50;;;4.20;;
69280;SDS011;56392;51.082;17.080;2023-03-23T17:17:20;13.05;;;4.63;;
69280;SDS011;56392;51.082;17.080;2023-03-23T17:22:45;11.20;;;4.20;;
69280;SDS011;56392;51.082;17.080;2023-03-23T17:28:09;12.60;;;3.80;;
69280;SDS011;56392;51.082;17.080;2023-03-23T17:33:33;10.20;;;3.20;;
69280;SDS011;56392;51.082;17.080;2023-03-23T17:38:56;10.43;;;3.53;;
69280;SDS011;56392;51.082;17.080;2023-03-23T17:44:19;9.70;;;3.60;;
69280;SDS011;56392;51.082;17.080;2023-03-23T17:49:44;9.23;;;3.50;;
69280;SDS011;56392;51.082;17.080;2023-03-23T17:55:08;9.20;;;3.38;;
69280;SDS011;56392;51.082;17.080;2023-03-23T18:00:31;11.60;;;3.90;;
69280;SDS011;56392;51.082;17.080;2023-03-23T18:05:58;10.25;;;3.80;;
69280;SDS011;56392;51.082;17.080;2023-03-23T18:11:22;11.52;;;4.32;;
69280;SDS011;56392;51.082;17.080;2023-03-23T18:16:45;11.23;;;4.20;;
69280;SDS011;56392;51.082;17.080;2023-03-23T18:22:10;9.50;;;4.10;;
69280;SDS011;56392;51.082;17.080;2023-03-23T18:27:33;11.88;;;4.22;;
69280;SDS011;56392;51.082;17.080;2023-03-23T18:32:57;11.77;;;3.97;;
69280;SDS011;56392;51.082;17.080;2023-03-23T18:38:22;9.80;;;3.97;;
69280;SDS011;56392;51.082;17.080;2023-03-23T18:43:45;10.77;;;4.18;;
69280;SDS011;56392;51.082;17.080;2023-03-23T18:49:09;10.60;;;4.55;;
69280;SDS011;56392;51.082;17.080;2023-03-23T18:54:33;11.63;;;4.30;;
69280;SDS011;56392;51.082;17.080;2023-03-23T18:59:58;12.32;;;4.88;;
69280;SDS011;56392;51.082;17.080;2023-03-23T19:05:22;11.50;;;4.50;;
69280;SDS011;56392;51.082;17.080;2023-03-23T19:10:46;12.57;;;4.90;;
69280;SDS011;56392;51.082;17.080;2023-03-23T19:16:09;12.67;;;4.87;;
69280;SDS011;56392;51.082;17.080;2023-03-23T19:21:33;12.90;;;5.25;;
69280;SDS011;56392;51.082;17.080;2023-03-23T19:26:58;11.98;;;5.72;;
69280;SDS011;56392;51.082;17.080;2023-03-23T19:32:21;13.33;;;5.93;;
69280;SDS011;56392;51.082;17.080;2023-03-23T19:37:44;12.70;;;5.57;;
69280;SDS011;56392;51.082;17.080;2023-03-23T19:43:09;13.70;;;5.53;;
69280;SDS011;56392;51.082;17.080;2023-03-23T19:48:32;13.33;;;6.13;;
69280;SDS011;56392;51.082;17.080;2023-03-23T19:53:58;14.70;;;6.13;;
69280;SDS011;56392;51.082;17.080;2023-03-23T19:59:22;13.90;;;5.93;;
69280;SDS011;56392;51.082;17.080;2023-03-23T20:04:45;16.10;;;7.37;;
69280;SDS011;56392;51.082;17.080;2023-03-23T20:10:08;20.63;;;8.87;;
69280;SDS011;56392;51.082;17.080;2023-03-23T20:15:33;19.33;;;8.02;;
69280;SDS011;56392;51.082;17.080;2023-03-23T20:21:00;15.23;;;6.60;;
69280;SDS011;56392;51.082;17.080;2023-03-23T20:26:24;14.17;;;6.03;;
69280;SDS011;56392;51.082;17.080;2023-03-23T20:31:50;16.88;;;6.65;;
69280;SDS011;56392;51.082;17.080;2023-03-23T20:37:14;14.80;;;6.10;;
69280;SDS011;56392;51.082;17.080;2023-03-23T20:42:41;14.57;;;5.70;;
69280;SDS011;56392;51.082;17.080;2023-03-23T20:48:05;12.73;;;5.30;;
69280;SDS011;56392;51.082;17.080;2023-03-23T20:53:30;13.85;;;5.40;;
69280;SDS011;56392;51.082;17.080;2023-03-23T20:58:54;12.40;;;5.63;;
69280;SDS011;56392;51.082;17.080;2023-03-23T21:04:19;14.13;;;5.80;;
69280;SDS011;56392;51.082;17.080;2023-03-23T21:09:48;11.02;;;5.25;;
69280;SDS011;56392;51.082;17.080;2023-03-23T21:15:11;17.00;;;6.40;;
69280;SDS011;56392;51.082;17.080;2023-03-23T21:20:36;12.70;;;5.67;;
69280;SDS011;56392;51.082;17.080;2023-03-23T21:26:01;15.43;;;6.28;;
69280;SDS011;56392;51.082;17.080;2023-03-23T21:31:26;19.63;;;9.32;;
69280;SDS011;56392;51.082;17.080;2023-03-23T21:36:53;19.77;;;10.40;;
69280;SDS011;56392;51.082;17.080;2023-03-23T21:42:16;22.88;;;10.10;;
69280;SDS011;56392;51.082;17.080;2023-03-23T21:47:39;17.95;;;8.30;;
69280;SDS011;56392;51.082;17.080;2023-03-23T21:53:04;14.80;;;7.07;;
69280;SDS011;56392;51.082;17.080;2023-03-23T21:58:28;15.10;;;6.30;;
69280;SDS011;56392;51.082;17.080;2023-03-23T22:03:51;13.23;;;6.35;;
69280;SDS011;56392;51.082;17.080;2023-03-23T22:09:15;14.25;;;6.50;;
69280;SDS011;56392;51.082;17.080;2023-03-23T22:14:39;12.83;;;6.00;;
69280;SDS011;56392;51.082;17.080;2023-03-23T22:20:02;17.00;;;6.18;;
69280;SDS011;56392;51.082;17.080;2023-03-23T22:25:27;12.75;;;5.85;;
69280;SDS011;56392;51.082;17.080;2023-03-23T22:30:51;11.60;;;5.53;;
69280;SDS011;56392;51.082;17.080;2023-03-23T22:36:15;13.45;;;6.35;;
69280;SDS011;56392;51.082;17.080;2023-03-23T22:41:40;16.33;;;7.35;;
69280;SDS011;56392;51.082;17.080;2023-03-23T22:47:04;14.30;;;7.00;;
69280;SDS011;56392;51.082;17.080;2023-03-23T22:52:27;15.83;;;6.30;;
69280;SDS011;56392;51.082;17.080;2023-03-23T22:57:51;10.75;;;5.32;;
69280;SDS011;56392;51.082;17.080;2023-03-23T23:03:14;9.88;;;4.90;;
69280;SDS011;56392;51.082;17.080;2023-03-23T23:08:38;12.47;;;5.60;;
69280;SDS011;56392;51.082;17.080;2023-03-23T23:14:03;11.63;;;5.32;;
69280;SDS011;56392;51.082;17.080;2023-03-23T23:19:26;11.90;;;4.22;;
69280;SDS011;56392;51.082;17.080;2023-03-23T23:24:49;9.33;;;4.10;;
69280;SDS011;56392;51.082;17.080;2023-03-23T23:30:14;9.13;;;4.18;;
69280;SDS011;56392;51.082;17.080;2023-03-23T23:35:37;10.02;;;4.00;;
69280;SDS011;56392;51.082;17.080;2023-03-23T23:41:02;11.10;;;4.27;;
69280;SDS011;56392;51.082;17.080;2023-03-23T23:46:27;10.87;;;4.80;;
69280;SDS011;56392;51.082;17.080;2023-03-23T23:51:51;9.88;;;4.35;;
69280;SDS011;56392;51.082;17.080;2023-03-23T23:57:14;10.20;;;4.10;;
